Time;durP1;ratioP1;P1;durP2;ratioP2;P2;SDS_P1;SDS_P2;PMS_P1;PMS_P2;Temp;Humidity;BMP_temperature;BMP_pressure;BME280_temperature;BME280_humidity;BME280_pressure;Samples;Min_cycle;Max_cycle;Signal;HPM_P1;HPM_P2
2022/10/04 00:01:20;;;;;;;;;;;9.70;78.90;;;;;;5082528;28;20010;-76
2022/10/04 00:03:46;;;;;;;;;;;9.70;78.90;;;;;;5070356;28;19912;-76
2022/10/04 00:06:16;;;;;;;;;;;9.70;78.90;;;;;;5053631;28;20374;-77
2022/10/04 00:08:46;;;;;;;;;;;9.70;78.90;;;;;;5058976;28;19912;-77
2022/10/04 00:11:13;;;;;;;;;;;9.70;79.00;;;;;;5078133;28;19916;-76
2022/10/04 00:13:39;;;;;;;;;;;9.70;78.90;;;;;;5066654;28;19916;-76
2022/10/04 00:16:04;;;;;;;;;;;9.70;78.90;;;;;;5071794;28;19942;-76
2022/10/04 00:18:31;;;;;;;;;;;9.70;79.00;;;;;;5069549;28;19931;-75
2022/10/04 00:21:00;;;;;;;;;;;9.70;79.00;;;;;;5072256;28;19916;-76
2022/10/04 00:23:30;;;;;;;;;;;9.70;79.00;;;;;;5066893;28;19916;-76
2022/10/04 00:26:16;;;;;;;;;;;9.70;78.90;;;;;;5068289;28;19947;-77
2022/10/04 00:28:42;;;;;;;;;;;9.70;79.00;;;;;;5083795;28;19934;-76
2022/10/04 00:31:08;;;;;;;;;;;9.70;79.00;;;;;;5057763;28;19989;-75
2022/10/04 00:33:34;;;;;;;;;;;9.70;79.00;;;;;;5084114;28;20380;-77
2022/10/04 00:35:59;;;;;;;;;;;9.70;79.00;;;;;;5072853;28;19920;-76
2022/10/04 00:38:26;;;;;;;;;;;9.70;78.90;;;;;;5057531;28;19923;-76
2022/10/04 00:41:02;;;;;;;;;;;9.70;78.90;;;;;;5057615;28;19912;-75
2022/10/04 00:43:34;;;;;;;;;;;9.70;78.90;;;;;;5070665;28;19950;-76
2022/10/04 00:46:04;;;;;;;;;;;9.70;78.90;;;;;;5072564;28;19920;-76
2022/10/04 00:48:33;;;;;;;;;;;9.80;79.00;;;;;;5070512;28;19927;-76
2022/10/04 00:51:01;;;;;;;;;;;9.80;79.00;;;;;;5074176;28;20358;-76
2022/10/04 00:53:38;;;;;;;;;;;9.80;79.00;;;;;;5053552;28;20044;-77
2022/10/04 00:56:14;;;;;;;;;;;9.80;79.00;;;;;;5089621;28;19912;-77
2022/10/04 00:59:01;;;;;;;;;;;9.70;78.90;;;;;;5103641;28;19916;-76
2022/10/04 01:01:26;;;;;;;;;;;9.70;78.90;;;;;;5041208;28;19919;-77
2022/10/04 01:03:52;;;;;;;;;;;9.70;78.90;;;;;;5052582;28;19916;-76
2022/10/04 01:06:18;;;;;;;;;;;9.70;78.90;;;;;;5072764;28;19913;-76
2022/10/04 01:08:44;;;;;;;;;;;9.70;78.90;;;;;;5071778;28;19916;-76
2022/10/04 01:11:14;;;;;;;;;;;9.70;78.90;;;;;;5071298;28;19912;-75
2022/10/04 01:13:44;;;;;;;;;;;9.70;78.90;;;;;;5068806;28;20599;-76
2022/10/04 01:16:14;;;;;;;;;;;9.70;78.90;;;;;;5087884;28;19912;-76
2022/10/04 01:18:39;;;;;;;;;;;9.70;78.90;;;;;;5072362;28;19924;-76
2022/10/04 01:21:08;;;;;;;;;;;9.70;78.90;;;;;;5057647;28;19916;-76
2022/10/04 01:23:46;;;;;;;;;;;9.70;78.90;;;;;;5073401;28;19920;-77
2022/10/04 01:26:33;;;;;;;;;;;9.70;78.90;;;;;;5069726;28;19947;-77
2022/10/04 01:28:58;;;;;;;;;;;9.70;79.00;;;;;;5078411;28;19971;-76
2022/10/04 01:31:25;;;;;;;;;;;9.70;78.90;;;;;;5078128;28;19961;-77
2022/10/04 01:33:50;;;;;;;;;;;9.70;79.00;;;;;;5056393;28;19920;-76
2022/10/04 01:36:16;;;;;;;;;;;9.60;78.90;;;;;;5075905;28;20392;-77
2022/10/04 01:38:41;;;;;;;;;;;9.70;79.00;;;;;;5069951;28;19920;-76
2022/10/04 01:41:07;;;;;;;;;;;9.70;79.00;;;;;;5057948;28;19920;-76
2022/10/04 01:43:34;;;;;;;;;;;9.70;79.10;;;;;;5058397;28;19999;-76
2022/10/04 01:46:03;;;;;;;;;;;9.70;79.00;;;;;;5089742;28;20002;-76
2022/10/04 01:48:31;;;;;;;;;;;9.60;79.00;;;;;;5100057;28;19920;-76
2022/10/04 01:50:57;;;;;;;;;;;9.60;79.00;;;;;;5055960;28;20014;-76
2022/10/04 01:53:23;;;;;;;;;;;9.60;79.00;;;;;;5084637;28;19920;-77
2022/10/04 01:55:53;;;;;;;;;;;9.60;79.00;;;;;;5089660;28;19920;-76
2022/10/04 01:58:20;;;;;;;;;;;9.60;79.00;;;;;;5085727;28;19919;-76
2022/10/04 02:00:50;;;;;;;;;;;9.60;79.10;;;;;;5071357;28;19931;-76
2022/10/04 02:03:24;;;;;;;;;;;9.60;79.00;;;;;;5059552;28;19920;-76
2022/10/04 02:05:53;;;;;;;;;;;9.60;79.00;;;;;;5054768;28;19916;-76
2022/10/04 02:08:22;;;;;;;;;;;9.60;79.10;;;;;;5087995;28;19919;-75
2022/10/04 02:10:47;;;;;;;;;;;9.60;79.10;;;;;;5103764;28;19919;-76
2022/10/04 02:13:14;;;;;;;;;;;9.60;79.10;;;;;;5061257;28;19919;-76
2022/10/04 02:15:39;;;;;;;;;;;9.50;79.00;;;;;;5075755;28;19927;-77
2022/10/04 02:18:11;;;;;;;;;;;9.50;79.00;;;;;;5093271;28;19971;-76
2022/10/04 02:20:37;;;;;;;;;;;9.50;79.00;;;;;;5062119;28;19947;-75
2022/10/04 02:23:02;;;;;;;;;;;9.50;79.10;;;;;;5072334;28;19920;-75
2022/10/04 02:25:28;;;;;;;;;;;9.50;79.00;;;;;;5071383;28;19915;-77
2022/10/04 02:27:54;;;;;;;;;;;9.50;79.10;;;;;;5101464;28;19924;-76
2022/10/04 02:30:19;;;;;;;;;;;9.40;79.10;;;;;;5070645;28;19923;-76
2022/10/04 02:32:57;;;;;;;;;;;9.50;79.20;;;;;;5102447;28;19912;-76
2022/10/04 02:35:26;;;;;;;;;;;9.40;79.10;;;;;;5070264;28;19924;-76
2022/10/04 02:38:00;;;;;;;;;;;9.40;79.10;;;;;;5087724;28;19988;-77
2022/10/04 02:40:29;;;;;;;;;;;9.40;79.10;;;;;;5087821;28;19946;-76
2022/10/04 02:42:59;;;;;;;;;;;9.40;79.10;;;;;;5068770;28;19912;-76
2022/10/04 02:45:39;;;;;;;;;;;9.40;79.10;;;;;;5088966;28;19920;-77
2022/10/04 02:48:21;;;;;;;;;;;9.30;79.10;;;;;;5106116;28;19931;-76
2022/10/04 02:50:48;;;;;;;;;;;9.30;79.10;;;;;;5106059;28;19923;-76
2022/10/04 02:53:25;;;;;;;;;;;9.30;79.20;;;;;;5058200;28;20026;-76
2022/10/04 02:55:51;;;;;;;;;;;9.30;79.30;;;;;;5089096;28;19922;-76
2022/10/04 02:58:17;;;;;;;;;;;9.30;79.20;;;;;;5070922;28;19916;-76
2022/10/04 03:00:49;;;;;;;;;;;9.30;79.20;;;;;;5052491;28;19920;-76
2022/10/04 03:03:16;;;;;;;;;;;9.30;79.20;;;;;;5085733;28;20007;-76
2022/10/04 03:05:42;;;;;;;;;;;9.30;79.30;;;;;;5082466;28;19916;-78
2022/10/04 03:08:08;;;;;;;;;;;9.30;79.30;;;;;;5052467;28;20036;-76
2022/10/04 03:10:34;;;;;;;;;;;9.30;79.30;;;;;;5052458;28;19920;-76
2022/10/04 03:13:00;;;;;;;;;;;9.30;79.30;;;;;;5056127;28;19919;-76
2022/10/04 03:15:25;;;;;;;;;;;9.20;79.20;;;;;;5072041;28;19920;-76
2022/10/04 03:17:51;;;;;;;;;;;9.20;79.20;;;;;;5098448;28;20117;-77
2022/10/04 03:20:20;;;;;;;;;;;9.20;79.20;;;;;;5068901;28;19918;-75
2022/10/04 03:22:47;;;;;;;;;;;9.20;79.30;;;;;;5092190;28;19919;-76
2022/10/04 03:25:23;;;;;;;;;;;9.20;79.30;;;;;;5085047;28;20510;-76
2022/10/04 03:27:49;;;;;;;;;;;9.20;79.30;;;;;;5055493;28;20312;-76
2022/10/04 03:30:14;;;;;;;;;;;9.20;79.30;;;;;;5086288;28;19916;-76
2022/10/04 03:32:40;;;;;;;;;;;9.20;79.30;;;;;;5084732;28;19938;-76
2022/10/04 03:35:17;;;;;;;;;;;9.20;79.30;;;;;;5068034;28;19912;-75
2022/10/04 03:37:44;;;;;;;;;;;9.20;79.40;;;;;;5072271;28;19966;-76
2022/10/04 03:40:09;;;;;;;;;;;9.20;79.40;;;;;;5103270;27;19981;-76
2022/10/04 03:42:35;;;;;;;;;;;9.20;80.20;;;;;;5065393;28;19925;-76
2022/10/04 03:45:01;;;;;;;;;;;9.20;79.40;;;;;;5078468;28;19927;-76
2022/10/04 03:47:29;;;;;;;;;;;9.20;79.40;;;;;;5051415;28;19922;-77
2022/10/04 03:49:56;;;;;;;;;;;9.20;79.40;;;;;;5065929;28;20243;-76
2022/10/04 03:52:23;;;;;;;;;;;9.10;79.30;;;;;;5065822;28;19912;-76
2022/10/04 03:54:49;;;;;;;;;;;9.10;79.30;;;;;;5069735;28;20048;-76
2022/10/04 03:57:15;;;;;;;;;;;9.10;79.40;;;;;;5054617;28;20010;-76
2022/10/04 03:59:42;;;;;;;;;;;9.10;79.40;;;;;;5068795;28;19950;-76
2022/10/04 04:02:12;;;;;;;;;;;9.10;79.40;;;;;;5068904;28;19913;-76
2022/10/04 04:04:44;;;;;;;;;;;9.10;79.50;;;;;;5057844;28;19954;-76
2022/10/04 04:07:45;;;;;;;;;;;9.10;79.50;;;;;;5069898;28;19916;-76
2022/10/04 04:10:24;;;;;;;;;;;9.10;79.50;;;;;;4999425;28;20015;-75
2022/10/04 04:12:58;;;;;;;;;;;9.10;79.50;;;;;;5050069;28;19926;-76
2022/10/04 04:15:26;;;;;;;;;;;9.10;79.50;;;;;;5066584;28;19926;-75
2022/10/04 04:17:52;;;;;;;;;;;9.10;79.50;;;;;;5071108;28;19913;-75
2022/10/04 04:20:19;;;;;;;;;;;9.00;79.40;;;;;;5099994;28;19916;-75
2022/10/04 04:22:45;;;;;;;;;;;9.00;79.40;;;;;;5075577;28;19916;-74
2022/10/04 04:25:12;;;;;;;;;;;9.00;79.40;;;;;;5054583;28;19914;-74
2022/10/04 04:27:39;;;;;;;;;;;9.00;79.50;;;;;;5084758;28;20462;-74
2022/10/04 04:30:05;;;;;;;;;;;9.00;79.50;;;;;;5071445;28;19978;-73
2022/10/04 04:32:39;;;;;;;;;;;9.00;79.50;;;;;;5069593;28;19912;-73
2022/10/04 04:35:07;;;;;;;;;;;9.00;79.50;;;;;;5059932;28;19947;-74
2022/10/04 04:37:36;;;;;;;;;;;9.00;79.50;;;;;;5074131;28;20597;-75
2022/10/04 04:40:18;;;;;;;;;;;9.00;79.50;;;;;;5100186;28;19912;-75
2022/10/04 04:42:44;;;;;;;;;;;9.10;79.50;;;;;;5081496;28;19923;-76
2022/10/04 04:45:10;;;;;;;;;;;9.00;79.50;;;;;;5082646;28;19925;-75
2022/10/04 04:47:43;;;;;;;;;;;9.00;79.50;;;;;;5099623;28;20991;-76
2022/10/04 04:50:17;;;;;;;;;;;9.00;79.50;;;;;;5096668;28;19947;-75
2022/10/04 04:52:50;;;;;;;;;;;9.00;79.50;;;;;;5054651;28;19908;-75
2022/10/04 04:55:19;;;;;;;;;;;9.00;79.60;;;;;;5078624;28;19976;-75
2022/10/04 04:57:45;;;;;;;;;;;9.00;79.60;;;;;;5094939;28;19909;-76
2022/10/04 05:00:15;;;;;;;;;;;9.00;79.60;;;;;;5078212;28;19972;-76
2022/10/04 05:02:40;;;;;;;;;;;9.00;79.60;;;;;;5070942;28;19908;-76
2022/10/04 05:05:15;;;;;;;;;;;9.00;79.60;;;;;;5086444;28;19971;-76
2022/10/04 05:07:44;;;;;;;;;;;9.00;79.60;;;;;;5104609;28;19912;-75
2022/10/04 05:10:31;;;;;;;;;;;9.00;79.60;;;;;;5088099;28;19915;-75
2022/10/04 05:12:58;;;;;;;;;;;9.00;79.60;;;;;;5119155;28;20357;-74
2022/10/04 05:15:24;;;;;;;;;;;9.00;79.60;;;;;;5066933;28;19924;-76
2022/10/04 05:17:49;;;;;;;;;;;9.00;79.60;;;;;;5081733;28;19923;-75
2022/10/04 05:20:15;;;;;;;;;;;9.00;80.40;;;;;;5117085;28;19916;-75
2022/10/04 05:22:42;;;;;;;;;;;9.00;79.60;;;;;;5080790;28;19938;-75
2022/10/04 05:25:09;;;;;;;;;;;9.00;79.60;;;;;;5081295;28;19912;-77
2022/10/04 05:27:35;;;;;;;;;;;9.00;79.60;;;;;;5064647;28;19921;-77
2022/10/04 05:30:19;;;;;;;;;;;9.00;79.60;;;;;;5110108;28;19912;-75
2022/10/04 05:32:51;;;;;;;;;;;9.00;79.60;;;;;;5097635;28;19928;-75
2022/10/04 05:35:17;;;;;;;;;;;9.00;79.60;;;;;;5081185;28;19985;-76
2022/10/04 05:37:45;;;;;;;;;;;9.00;79.60;;;;;;5097382;28;19912;-76
2022/10/04 05:40:14;;;;;;;;;;;9.00;79.60;;;;;;5094092;28;19933;-76
2022/10/04 05:42:46;;;;;;;;;;;9.00;79.70;;;;;;5097148;28;19911;-75
2022/10/04 05:45:15;;;;;;;;;;;9.00;79.70;;;;;;5077355;28;19981;-76
2022/10/04 05:47:40;;;;;;;;;;;9.00;79.70;;;;;;5094567;28;19918;-76
2022/10/04 05:50:12;;;;;;;;;;;9.00;79.70;;;;;;5076736;28;19943;-75
2022/10/04 05:52:38;;;;;;;;;;;9.00;79.70;;;;;;5080207;28;19912;-77
2022/10/04 05:55:26;;;;;;;;;;;9.00;79.70;;;;;;5074140;28;19931;-75
2022/10/04 05:58:24;;;;;;;;;;;9.00;79.70;;;;;;5055623;28;19966;-75
2022/10/04 06:01:09;;;;;;;;;;;8.90;79.60;;;;;;5068388;28;19919;-76
2022/10/04 06:04:00;;;;;;;;;;;8.90;79.60;;;;;;5080828;28;19920;-76
2022/10/04 06:06:45;;;;;;;;;;;9.00;79.70;;;;;;5042247;28;19916;-77
2022/10/04 06:09:26;;;;;;;;;;;9.00;79.70;;;;;;5088128;28;19918;-75
2022/10/04 06:12:01;;;;;;;;;;;9.00;79.70;;;;;;5093677;28;19939;-76
2022/10/04 06:14:29;;;;;;;;;;;8.90;79.60;;;;;;5089587;28;20368;-75
2022/10/04 06:17:02;;;;;;;;;;;8.90;79.60;;;;;;5078184;28;19912;-75
2022/10/04 06:19:40;;;;;;;;;;;9.00;79.70;;;;;;5078840;28;19919;-74
2022/10/04 06:22:08;;;;;;;;;;;9.00;79.70;;;;;;5074518;28;19943;-75
2022/10/04 06:24:36;;;;;;;;;;;8.90;79.70;;;;;;5075163;28;19912;-76
2022/10/04 06:27:03;;;;;;;;;;;9.00;79.80;;;;;;5074072;28;19912;-75
2022/10/04 06:29:31;;;;;;;;;;;8.90;79.70;;;;;;5075029;28;19927;-74
2022/10/04 06:32:09;;;;;;;;;;;9.00;79.80;;;;;;5065441;28;19919;-76
2022/10/04 06:34:50;;;;;;;;;;;9.00;79.80;;;;;;5071304;28;19951;-76
2022/10/04 06:37:20;;;;;;;;;;;9.00;79.80;;;;;;5065569;28;19919;-75
2022/10/04 06:40:05;;;;;;;;;;;9.00;79.70;;;;;;5073726;28;20041;-77
2022/10/04 06:42:33;;;;;;;;;;;9.00;79.70;;;;;;5092803;28;20347;-76
2022/10/04 06:45:18;;;;;;;;;;;9.00;79.70;;;;;;5081075;28;20026;-76
2022/10/04 06:47:46;;;;;;;;;;;9.00;79.70;;;;;;5093051;28;19926;-75
2022/10/04 06:50:15;;;;;;;;;;;9.00;79.70;;;;;;5093986;28;19974;-75
2022/10/04 06:52:47;;;;;;;;;;;9.00;79.70;;;;;;5093517;28;20186;-77
2022/10/04 06:55:26;;;;;;;;;;;9.00;79.70;;;;;;5093151;28;19924;-76
2022/10/04 06:58:12;;;;;;;;;;;9.10;79.80;;;;;;5076752;28;19934;-76
2022/10/04 07:00:51;;;;;;;;;;;9.10;79.80;;;;;;5075003;28;19912;-76
2022/10/04 07:03:22;;;;;;;;;;;9.10;79.80;;;;;;5059617;28;19917;-76
2022/10/04 07:05:57;;;;;;;;;;;9.10;79.70;;;;;;5075375;28;19912;-76
2022/10/04 07:08:35;;;;;;;;;;;9.10;79.60;;;;;;5076446;28;19927;-77
2022/10/04 07:11:06;;;;;;;;;;;9.10;79.70;;;;;;5079207;28;19980;-76
2022/10/04 07:13:50;;;;;;;;;;;9.10;79.70;;;;;;5064163;28;19922;-77
2022/10/04 07:16:15;;;;;;;;;;;9.20;79.70;;;;;;5077214;28;19933;-77
2022/10/04 07:18:43;;;;;;;;;;;9.20;79.70;;;;;;5077109;28;19978;-74
2022/10/04 07:21:10;;;;;;;;;;;9.10;79.60;;;;;;5070767;28;20004;-75
2022/10/04 07:23:43;;;;;;;;;;;9.20;79.70;;;;;;5071679;28;19923;-75
2022/10/04 07:26:27;;;;;;;;;;;9.20;79.70;;;;;;5058388;28;19938;-75
2022/10/04 07:31:38;;;;;;;;;;;9.30;79.70;;;;;;5067439;28;19994;-75
2022/10/04 07:34:14;;;;;;;;;;;9.30;79.70;;;;;;5075341;28;19955;-75
2022/10/04 07:36:44;;;;;;;;;;;9.30;79.60;;;;;;5071725;28;19923;-75
2022/10/04 07:39:12;;;;;;;;;;;9.30;79.60;;;;;;5062438;28;19912;-75
2022/10/04 07:41:38;;;;;;;;;;;9.40;79.70;;;;;;5063011;28;19912;-76
2022/10/04 07:44:26;;;;;;;;;;;9.40;79.70;;;;;;5075944;28;19974;-77
2022/10/04 07:46:54;;;;;;;;;;;9.40;79.70;;;;;;5071748;28;19930;-76
2022/10/04 07:49:20;;;;;;;;;;;9.40;79.60;;;;;;5107472;28;19967;-75
2022/10/04 07:51:54;;;;;;;;;;;9.40;79.60;;;;;;5063881;28;19919;-76
2022/10/04 07:54:25;;;;;;;;;;;9.50;79.60;;;;;;5088496;28;19920;-76
2022/10/04 07:56:56;;;;;;;;;;;9.50;79.50;;;;;;5093902;28;19919;-77
2022/10/04 07:59:31;;;;;;;;;;;9.50;79.50;;;;;;5061382;28;19946;-76
2022/10/04 08:02:00;;;;;;;;;;;9.60;79.60;;;;;;5076897;28;19919;-76
2022/10/04 08:04:27;;;;;;;;;;;9.60;79.50;;;;;;5077227;28;19920;-75
2022/10/04 08:07:02;;;;;;;;;;;9.70;79.60;;;;;;5076386;28;19920;-76
2022/10/04 08:09:30;;;;;;;;;;;9.70;79.50;;;;;;5094076;28;19927;-75
2022/10/04 08:11:58;;;;;;;;;;;9.80;79.50;;;;;;5080140;28;19951;-76
2022/10/04 08:14:31;;;;;;;;;;;9.80;79.50;;;;;;5095893;28;19974;-77
2022/10/04 08:16:57;;;;;;;;;;;9.90;79.40;;;;;;5042890;28;19969;-77
2022/10/04 08:19:34;;;;;;;;;;;9.90;79.40;;;;;;5062117;28;19980;-75
2022/10/04 08:22:06;;;;;;;;;;;9.90;79.30;;;;;;5095644;28;20198;-76
2022/10/04 08:24:32;;;;;;;;;;;10.00;79.30;;;;;;5061632;28;19912;-76
2022/10/04 08:27:07;;;;;;;;;;;10.00;79.30;;;;;;5077952;28;19924;-77
2022/10/04 08:29:42;;;;;;;;;;;10.10;80.10;;;;;;5073730;28;19977;-76
2022/10/04 08:32:22;;;;;;;;;;;10.10;79.30;;;;;;5071088;28;19943;-77
2022/10/04 08:35:00;;;;;;;;;;;10.20;79.20;;;;;;5076237;28;19971;-75
2022/10/04 08:37:29;;;;;;;;;;;10.20;79.20;;;;;;5093949;28;20503;-76
2022/10/04 08:40:07;;;;;;;;;;;10.30;79.20;;;;;;5082078;28;19912;-77
2022/10/04 08:42:33;;;;;;;;;;;10.30;79.10;;;;;;5100981;28;19912;-76
2022/10/04 08:45:06;;;;;;;;;;;10.40;79.10;;;;;;5081960;28;19924;-76
2022/10/04 08:47:37;;;;;;;;;;;10.40;79.00;;;;;;5096235;28;19912;-76
2022/10/04 08:50:06;;;;;;;;;;;10.50;79.00;;;;;;5080547;28;19919;-75
2022/10/04 08:52:43;;;;;;;;;;;10.50;79.00;;;;;;5115645;28;19979;-76
2022/10/04 08:55:24;;;;;;;;;;;10.60;79.00;;;;;;5090753;28;19920;-76
2022/10/04 08:58:12;;;;;;;;;;;10.70;78.90;;;;;;5097738;28;19926;-77
2022/10/04 09:00:37;;;;;;;;;;;10.80;78.90;;;;;;5096299;28;19991;-77
2022/10/04 09:03:05;;;;;;;;;;;10.80;78.80;;;;;;5082688;28;19912;-76
2022/10/04 09:05:46;;;;;;;;;;;10.90;78.80;;;;;;5095233;28;19916;-77
2022/10/04 09:08:30;;;;;;;;;;;11.00;78.80;;;;;;5090932;28;19916;-75
2022/10/04 09:11:12;;;;;;;;;;;11.10;78.70;;;;;;5094880;28;19944;-77
2022/10/04 09:13:47;;;;;;;;;;;11.20;78.70;;;;;;5099034;28;19912;-76
2022/10/04 09:16:16;;;;;;;;;;;11.30;78.50;;;;;;5094821;28;19916;-77
2022/10/04 09:18:49;;;;;;;;;;;11.40;78.40;;;;;;5078563;28;19950;-76
2022/10/04 09:21:19;;;;;;;;;;;11.50;78.30;;;;;;5079098;28;19950;-77
2022/10/04 09:23:52;;;;;;;;;;;11.60;78.20;;;;;;5097055;28;19919;-76
2022/10/04 09:26:18;;;;;;;;;;;11.70;78.20;;;;;;5095617;28;19912;-76
2022/10/04 09:29:02;;;;;;;;;;;11.80;78.10;;;;;;5081767;28;19923;-77
2022/10/04 09:31:34;;;;;;;;;;;11.90;78.10;;;;;;5080282;28;19911;-76
2022/10/04 09:34:00;;;;;;;;;;;12.00;78.00;;;;;;5080646;28;19983;-77
2022/10/04 09:36:44;;;;;;;;;;;12.20;78.10;;;;;;5073532;28;19919;-77
2022/10/04 09:39:28;;;;;;;;;;;12.40;77.90;;;;;;5099359;28;19970;-76
2022/10/04 09:42:06;;;;;;;;;;;12.60;77.70;;;;;;5096106;28;19912;-77
2022/10/04 09:44:51;;;;;;;;;;;12.70;77.50;;;;;;5099716;28;19987;-77
2022/10/04 09:47:30;;;;;;;;;;;12.80;77.40;;;;;;5090978;28;20374;-76
2022/10/04 09:49:58;;;;;;;;;;;13.00;77.40;;;;;;5077870;28;20396;-77
2022/10/04 09:52:34;;;;;;;;;;;13.10;77.20;;;;;;5091463;28;19984;-77
2022/10/04 09:55:03;;;;;;;;;;;13.20;77.10;;;;;;5071867;28;19916;-76
2022/10/04 09:57:48;;;;;;;;;;;13.40;77.00;;;;;;5081005;28;19926;-76
2022/10/04 10:00:23;;;;;;;;;;;13.50;76.90;;;;;;5091445;28;20120;-77
2022/10/04 10:02:55;;;;;;;;;;;13.60;76.80;;;;;;5076538;28;19996;-77
2022/10/04 10:05:38;;;;;;;;;;;13.80;76.70;;;;;;5110808;28;20367;-77
2022/10/04 10:08:22;;;;;;;;;;;14.00;76.60;;;;;;5059449;28;19923;-77
2022/10/04 10:13:56;;;;;;;;;;;14.40;76.30;;;;;;5077596;28;19943;-77
2022/10/04 10:16:24;;;;;;;;;;;14.60;76.00;;;;;;5092481;28;19934;-77
2022/10/04 10:19:04;;;;;;;;;;;14.70;75.90;;;;;;5095837;28;19973;-77
2022/10/04 10:21:33;;;;;;;;;;;14.80;75.80;;;;;;5079786;28;19983;-78
2022/10/04 10:24:16;;;;;;;;;;;15.00;75.80;;;;;;5064517;28;19938;-78
2022/10/04 10:27:12;;;;;;;;;;;15.20;75.60;;;;;;5074591;28;19912;-77
2022/10/04 10:29:41;;;;;;;;;;;15.30;75.40;;;;;;5024219;28;20026;-77
2022/10/04 10:32:09;;;;;;;;;;;15.50;75.30;;;;;;5090775;28;20533;-77
2022/10/04 10:34:39;;;;;;;;;;;15.60;75.10;;;;;;5057877;28;20011;-77
2022/10/04 10:37:12;;;;;;;;;;;15.70;75.10;;;;;;5074091;28;19991;-77
2022/10/04 10:39:50;;;;;;;;;;;15.90;75.00;;;;;;5091293;28;19999;-77
2022/10/04 10:42:18;;;;;;;;;;;16.00;74.80;;;;;;5067750;28;19915;-78
2022/10/04 10:44:56;;;;;;;;;;;16.20;74.70;;;;;;5096463;28;20226;-78
2022/10/04 10:47:22;;;;;;;;;;;16.40;74.60;;;;;;5093765;28;19912;-77
2022/10/04 10:49:59;;;;;;;;;;;16.50;74.50;;;;;;5078536;28;19965;-77
2022/10/04 10:52:25;;;;;;;;;;;16.70;75.20;;;;;;5097441;28;19926;-78
2022/10/04 10:55:09;;;;;;;;;;;16.90;74.10;;;;;;5091638;28;19998;-77
2022/10/04 10:57:45;;;;;;;;;;;17.00;74.00;;;;;;5095651;28;19945;-78
2022/10/04 11:00:10;;;;;;;;;;;17.10;73.90;;;;;;5092005;28;19912;-77
2022/10/04 11:02:48;;;;;;;;;;;17.20;73.80;;;;;;5109980;28;19978;-77
2022/10/04 11:05:20;;;;;;;;;;;17.30;73.70;;;;;;5057989;28;19938;-77
2022/10/04 11:07:48;;;;;;;;;;;17.40;73.70;;;;;;5093566;28;19916;-78
2022/10/04 11:10:20;;;;;;;;;;;17.50;73.60;;;;;;5107967;28;20729;-78
2022/10/04 11:13:04;;;;;;;;;;;17.70;73.40;;;;;;5097554;28;19933;-77
2022/10/04 11:15:29;;;;;;;;;;;17.80;73.30;;;;;;5079749;28;19916;-78
2022/10/04 11:18:14;;;;;;;;;;;18.00;73.20;;;;;;5096157;28;19916;-78
2022/10/04 11:20:49;;;;;;;;;;;18.10;73.00;;;;;;5097984;28;19912;-77
2022/10/04 11:23:27;;;;;;;;;;;18.40;72.80;;;;;;5081051;28;19973;-78
2022/10/04 11:25:56;;;;;;;;;;;18.60;72.70;;;;;;5098633;28;19998;-76
2022/10/04 11:28:34;;;;;;;;;;;18.80;72.50;;;;;;5098071;28;20008;-77
2022/10/04 11:31:22;;;;;;;;;;;19.00;72.30;;;;;;5094549;28;19912;-78
2022/10/04 11:33:54;;;;;;;;;;;19.20;72.10;;;;;;5104870;28;19919;-78
2022/10/04 11:36:23;;;;;;;;;;;19.50;71.90;;;;;;5088978;28;19913;-77
2022/10/04 11:38:50;;;;;;;;;;;19.70;71.60;;;;;;5088725;28;19922;-77
2022/10/04 11:41:35;;;;;;;;;;;19.90;71.50;;;;;;5108896;28;19975;-78
2022/10/04 11:44:06;;;;;;;;;;;20.10;71.20;;;;;;5079784;28;19924;-77
2022/10/04 11:46:40;;;;;;;;;;;20.30;71.80;;;;;;5099325;28;19965;-78
2022/10/04 11:49:11;;;;;;;;;;;20.40;70.80;;;;;;5075082;28;20283;-78
2022/10/04 11:51:39;;;;;;;;;;;20.60;71.40;;;;;;5079623;28;19920;-78
2022/10/04 11:54:06;;;;;;;;;;;20.70;70.50;;;;;;5079098;28;19930;-78
2022/10/04 11:56:34;;;;;;;;;;;20.90;70.40;;;;;;5079585;28;20284;-77
2022/10/04 11:59:20;;;;;;;;;;;21.10;70.20;;;;;;5097384;28;19927;-78
2022/10/04 12:02:05;;;;;;;;;;;21.20;70.10;;;;;;5091330;28;19912;-79
2022/10/04 12:04:46;;;;;;;;;;;21.40;69.90;;;;;;5082939;28;19934;-79
2022/10/04 12:07:30;;;;;;;;;;;21.60;69.70;;;;;;5070996;28;19916;-78
2022/10/04 12:10:15;;;;;;;;;;;21.80;69.50;;;;;;5089518;28;19918;-78
2022/10/04 12:12:48;;;;;;;;;;;22.00;69.20;;;;;;5093193;28;19920;-78
2022/10/04 12:15:23;;;;;;;;;;;22.10;69.10;;;;;;5089338;28;19931;-77
2022/10/04 12:18:05;;;;;;;;;;;22.30;69.10;;;;;;5108556;28;19916;-78
2022/10/04 12:20:37;;;;;;;;;;;22.50;69.00;;;;;;5077779;28;19959;-78
2022/10/04 12:23:22;;;;;;;;;;;22.60;68.70;;;;;;5089092;28;19920;-78
2022/10/04 12:25:48;;;;;;;;;;;22.80;68.60;;;;;;5056216;28;19942;-78
2022/10/04 13:57:12;;;;;;;;;;;26.50;64.40;;;;;;5062096;28;19974;-79
2022/10/04 13:59:40;;;;;;;;;;;26.50;64.40;;;;;;5051265;28;19969;-78
2022/10/04 14:02:21;;;;;;;;;;;26.60;64.30;;;;;;5062452;28;19912;-77
2022/10/04 14:05:05;;;;;;;;;;;26.70;64.20;;;;;;5065874;28;20387;-78
2022/10/04 14:07:31;;;;;;;;;;;26.70;64.10;;;;;;5077606;28;19920;-79
2022/10/04 14:10:10;;;;;;;;;;;26.80;64.10;;;;;;5075131;28;19919;-77
2022/10/04 14:12:40;;;;;;;;;;;26.90;64.00;;;;;;5078226;28;19912;-77
2022/10/04 14:15:24;;;;;;;;;;;26.90;63.80;;;;;;5059834;28;20068;-77
2022/10/04 14:17:53;;;;;;;;;;;27.00;63.80;;;;;;5058602;28;19920;-77
2022/10/04 14:20:28;;;;;;;;;;;27.10;63.80;;;;;;5078660;28;19954;-77
2022/10/04 14:22:58;;;;;;;;;;;27.00;63.60;;;;;;5075993;28;19916;-79
2022/10/04 14:25:42;;;;;;;;;;;27.10;63.50;;;;;;5056662;28;19923;-77
2022/10/04 14:28:26;;;;;;;;;;;27.00;63.60;;;;;;5073995;28;20481;-77
2022/10/04 14:30:51;;;;;;;;;;;27.00;63.60;;;;;;5074377;28;19962;-79
2022/10/04 14:33:20;;;;;;;;;;;27.00;63.60;;;;;;5072190;28;19916;-77
2022/10/04 14:35:47;;;;;;;;;;;27.00;63.60;;;;;;5068996;28;19931;-76
2022/10/04 14:38:24;;;;;;;;;;;27.00;63.50;;;;;;5038800;28;19961;-75
2022/10/04 14:40:59;;;;;;;;;;;27.10;63.50;;;;;;5047237;28;20639;-75
2022/10/04 14:43:43;;;;;;;;;;;27.10;63.50;;;;;;5075186;28;19954;-76
2022/10/04 14:46:15;;;;;;;;;;;27.10;63.30;;;;;;5086606;28;19912;-74
2022/10/04 14:49:02;;;;;;;;;;;27.10;63.30;;;;;;5057923;28;19919;-74
2022/10/04 14:51:47;;;;;;;;;;;27.10;63.30;;;;;;5056935;28;19916;-74
2022/10/04 14:54:24;;;;;;;;;;;27.00;63.20;;;;;;5063130;28;19924;-74
2022/10/04 14:56:53;;;;;;;;;;;27.10;63.30;;;;;;5066335;28;19977;-75
2022/10/04 14:59:21;;;;;;;;;;;27.00;63.20;;;;;;5050300;28;19923;-76
2022/10/04 15:01:59;;;;;;;;;;;27.00;63.20;;;;;;5053629;28;19970;-74
2022/10/04 15:04:32;;;;;;;;;;;27.00;63.20;;;;;;5054176;28;19922;-75
2022/10/04 15:06:59;;;;;;;;;;;27.10;63.20;;;;;;5037336;28;19923;-74
2022/10/04 15:09:25;;;;;;;;;;;27.00;63.20;;;;;;5036374;28;19913;-74
2022/10/04 15:11:54;;;;;;;;;;;27.10;63.20;;;;;;5047839;28;19920;-74
2022/10/04 15:14:36;;;;;;;;;;;27.00;63.20;;;;;;5051473;28;19921;-75
2022/10/04 15:17:03;;;;;;;;;;;27.00;63.20;;;;;;5050756;28;19931;-75
2022/10/04 15:19:33;;;;;;;;;;;27.00;63.20;;;;;;5033914;28;19931;-74
2022/10/04 15:22:00;;;;;;;;;;;26.90;63.20;;;;;;5038780;28;20297;-74
2022/10/04 15:24:38;;;;;;;;;;;26.90;63.20;;;;;;5050308;28;19919;-74
2022/10/04 15:27:22;;;;;;;;;;;26.80;63.10;;;;;;5038982;28;19917;-73
2022/10/04 15:30:02;;;;;;;;;;;26.70;63.00;;;;;;5059013;28;19967;-75
2022/10/04 15:32:46;;;;;;;;;;;26.60;63.90;;;;;;5041647;28;19917;-76
2022/10/04 15:35:30;;;;;;;;;;;26.40;63.10;;;;;;5056532;28;19924;-74
2022/10/04 15:38:00;;;;;;;;;;;26.30;63.20;;;;;;5060614;28;19920;-76
2022/10/04 15:40:25;;;;;;;;;;;26.10;63.10;;;;;;5048253;28;19972;-75
2022/10/04 15:43:03;;;;;;;;;;;26.00;63.20;;;;;;5058806;28;19998;-77
2022/10/04 15:45:47;;;;;;;;;;;25.90;63.30;;;;;;5074153;28;20620;-77
2022/10/04 15:48:15;;;;;;;;;;;25.80;63.40;;;;;;5075147;28;19917;-75
2022/10/04 15:50:41;;;;;;;;;;;25.60;63.40;;;;;;5058878;28;19919;-76
2022/10/04 15:53:16;;;;;;;;;;;25.50;63.50;;;;;;5046902;28;20023;-76
2022/10/04 15:55:44;;;;;;;;;;;25.40;63.50;;;;;;5051077;28;19921;-76
2022/10/04 15:58:14;;;;;;;;;;;25.20;63.60;;;;;;5081736;28;19920;-76
2022/10/04 16:00:58;;;;;;;;;;;25.00;63.60;;;;;;5084688;28;19969;-78
2022/10/04 16:03:36;;;;;;;;;;;24.90;63.80;;;;;;5081241;28;19920;-76
2022/10/04 16:06:16;;;;;;;;;;;24.70;63.90;;;;;;5084028;28;20426;-77
2022/10/04 16:09:01;;;;;;;;;;;24.60;64.10;;;;;;5099381;28;19912;-76
2022/10/04 16:11:45;;;;;;;;;;;24.30;64.10;;;;;;5069844;28;20284;-76
2022/10/04 16:14:29;;;;;;;;;;;24.20;64.40;;;;;;5065981;28;19943;-77
2022/10/04 16:16:57;;;;;;;;;;;24.00;64.50;;;;;;5080425;28;19916;-76
2022/10/04 16:19:37;;;;;;;;;;;23.80;64.60;;;;;;5076690;28;19920;-76
2022/10/04 16:22:14;;;;;;;;;;;23.70;64.80;;;;;;5062299;28;19920;-76
2022/10/04 16:24:44;;;;;;;;;;;23.50;65.00;;;;;;5050026;28;20392;-77
2022/10/04 16:27:19;;;;;;;;;;;23.30;65.00;;;;;;5099753;28;19948;-76
2022/10/04 16:30:03;;;;;;;;;;;23.20;65.20;;;;;;5066050;28;19930;-75